sensor_id;sensor_type;location;lat;lon;timestamp;temperature;humidity
68719;DHT22;55696;52.138;5.444;2022-11-14T00:01:12;9.70;70.00
68719;DHT22;55696;52.138;5.444;2022-11-14T00:03:58;9.80;69.70
68719;DHT22;55696;52.138;5.444;2022-11-14T00:06:43;9.80;69.50
68719;DHT22;55696;52.138;5.444;2022-11-14T00:09:29;9.80;69.40
68719;DHT22;55696;52.138;5.444;2022-11-14T00:12:14;9.70;69.40
68719;DHT22;55696;52.138;5.444;2022-11-14T00:14:59;9.70;69.40
68719;DHT22;55696;52.138;5.444;2022-11-14T00:17:45;9.70;69.50
68719;DHT22;55696;52.138;5.444;2022-11-14T00:20:31;9.70;69.50
68719;DHT22;55696;52.138;5.444;2022-11-14T00:23:16;9.70;70.30
68719;DHT22;55696;52.138;5.444;2022-11-14T00:26:02;9.70;70.10
68719;DHT22;55696;52.138;5.444;2022-11-14T00:28:47;9.70;69.80
68719;DHT22;55696;52.138;5.444;2022-11-14T00:31:33;9.50;69.80
68719;DHT22;55696;52.138;5.444;2022-11-14T00:34:18;9.70;69.90
68719;DHT22;55696;52.138;5.444;2022-11-14T00:37:04;9.60;69.80
68719;DHT22;55696;52.138;5.444;2022-11-14T00:39:49;9.70;69.70
68719;DHT22;55696;52.138;5.444;2022-11-14T00:42:35;9.70;69.70
68719;DHT22;55696;52.138;5.444;2022-11-14T00:45:20;9.70;69.80
68719;DHT22;55696;52.138;5.444;2022-11-14T00:48:06;9.60;69.70
68719;DHT22;55696;52.138;5.444;2022-11-14T00:50:51;9.60;69.90
68719;DHT22;55696;52.138;5.444;2022-11-14T00:53:37;9.60;70.00
68719;DHT22;55696;52.138;5.444;2022-11-14T00:56:22;9.50;70.40
68719;DHT22;55696;52.138;5.444;2022-11-14T00:59:07;9.50;70.00
68719;DHT22;55696;52.138;5.444;2022-11-14T01:01:52;9.70;70.20
68719;DHT22;55696;52.138;5.444;2022-11-14T01:04:41;9.70;69.70
68719;DHT22;55696;52.138;5.444;2022-11-14T01:07:27;9.70;69.60
68719;DHT22;55696;52.138;5.444;2022-11-14T01:10:12;9.70;69.50
68719;DHT22;55696;52.138;5.444;2022-11-14T01:12:57;9.60;69.60
68719;DHT22;55696;52.138;5.444;2022-11-14T01:15:45;9.70;69.70
68719;DHT22;55696;52.138;5.444;2022-11-14T01:18:31;9.60;71.00
68719;DHT22;55696;52.138;5.444;2022-11-14T01:21:16;9.60;69.80
68719;DHT22;55696;52.138;5.444;2022-11-14T01:24:02;9.60;69.70
68719;DHT22;55696;52.138;5.444;2022-11-14T01:26:47;9.60;69.90
68719;DHT22;55696;52.138;5.444;2022-11-14T01:29:33;9.50;69.70
68719;DHT22;55696;52.138;5.444;2022-11-14T01:32:18;9.50;69.90
68719;DHT22;55696;52.138;5.444;2022-11-14T01:35:04;9.50;69.90
68719;DHT22;55696;52.138;5.444;2022-11-14T01:37:49;9.40;70.10
68719;DHT22;55696;52.138;5.444;2022-11-14T01:40:40;9.40;70.00
68719;DHT22;55696;52.138;5.444;2022-11-14T01:43:35;9.30;71.80
68719;DHT22;55696;52.138;5.444;2022-11-14T01:46:28;9.40;72.00
68719;DHT22;55696;52.138;5.444;2022-11-14T01:49:28;9.50;71.30
68719;DHT22;55696;52.138;5.444;2022-11-14T01:52:24;9.40;72.30
68719;DHT22;55696;52.138;5.444;2022-11-14T01:55:10;9.40;71.50
68719;DHT22;55696;52.138;5.444;2022-11-14T01:57:56;9.30;70.10
68719;DHT22;55696;52.138;5.444;2022-11-14T02:00:42;9.20;70.70
68719;DHT22;55696;52.138;5.444;2022-11-14T02:03:28;9.20;71.20
68719;DHT22;55696;52.138;5.444;2022-11-14T02:06:17;9.10;70.60
68719;DHT22;55696;52.138;5.444;2022-11-14T02:09:05;9.10;72.20
68719;DHT22;55696;52.138;5.444;2022-11-14T02:11:52;9.00;72.20
68719;DHT22;55696;52.138;5.444;2022-11-14T02:14:40;9.00;71.90
68719;DHT22;55696;52.138;5.444;2022-11-14T02:17:26;8.90;71.40
68719;DHT22;55696;52.138;5.444;2022-11-14T02:20:26;9.00;70.90
68719;DHT22;55696;52.138;5.444;2022-11-14T02:23:31;9.00;73.00
68719;DHT22;55696;52.138;5.444;2022-11-14T02:26:18;8.90;73.00
68719;DHT22;55696;52.138;5.444;2022-11-14T02:29:04;8.90;72.00
68719;DHT22;55696;52.138;5.444;2022-11-14T02:31:49;8.90;71.10
68719;DHT22;55696;52.138;5.444;2022-11-14T02:34:34;8.80;70.80
68719;DHT22;55696;52.138;5.444;2022-11-14T02:37:20;8.80;71.00
68719;DHT22;55696;52.138;5.444;2022-11-14T02:40:06;8.90;71.00
68719;DHT22;55696;52.138;5.444;2022-11-14T02:42:51;8.90;71.30
68719;DHT22;55696;52.138;5.444;2022-11-14T02:45:37;8.80;71.10
68719;DHT22;55696;52.138;5.444;2022-11-14T02:48:22;8.80;71.20
68719;DHT22;55696;52.138;5.444;2022-11-14T02:51:07;8.80;71.10
68719;DHT22;55696;52.138;5.444;2022-11-14T02:53:53;8.80;71.20
68719;DHT22;55696;52.138;5.444;2022-11-14T02:56:38;8.70;71.20
68719;DHT22;55696;52.138;5.444;2022-11-14T02:59:24;8.70;71.20
68719;DHT22;55696;52.138;5.444;2022-11-14T03:02:09;8.60;71.30
68719;DHT22;55696;52.138;5.444;2022-11-14T03:04:54;8.60;71.40
68719;DHT22;55696;52.138;5.444;2022-11-14T03:07:40;8.60;71.60
68719;DHT22;55696;52.138;5.444;2022-11-14T03:10:25;8.60;71.60
68719;DHT22;55696;52.138;5.444;2022-11-14T03:13:11;8.40;71.60
68719;DHT22;55696;52.138;5.444;2022-11-14T03:15:56;8.40;71.90
68719;DHT22;55696;52.138;5.444;2022-11-14T03:18:42;8.40;71.90
68719;DHT22;55696;52.138;5.444;2022-11-14T03:21:27;8.30;72.10
68719;DHT22;55696;52.138;5.444;2022-11-14T03:24:12;8.30;72.10
68719;DHT22;55696;52.138;5.444;2022-11-14T03:26:58;8.30;72.00
68719;DHT22;55696;52.138;5.444;2022-11-14T03:29:43;8.30;72.00
68719;DHT22;55696;52.138;5.444;2022-11-14T03:32:28;8.30;72.30
68719;DHT22;55696;52.138;5.444;2022-11-14T03:35:14;8.20;72.30
68719;DHT22;55696;52.138;5.444;2022-11-14T03:37:59;8.20;72.30
68719;DHT22;55696;52.138;5.444;2022-11-14T03:40:45;8.10;72.50
68719;DHT22;55696;52.138;5.444;2022-11-14T03:43:32;8.10;72.40
68719;DHT22;55696;52.138;5.444;2022-11-14T03:46:17;8.10;73.70
68719;DHT22;55696;52.138;5.444;2022-11-14T03:49:02;8.00;73.60
68719;DHT22;55696;52.138;5.444;2022-11-14T03:51:48;8.00;72.80
68719;DHT22;55696;52.138;5.444;2022-11-14T03:54:33;7.80;72.60
68719;DHT22;55696;52.138;5.444;2022-11-14T03:57:18;8.00;72.80
68719;DHT22;55696;52.138;5.444;2022-11-14T04:00:04;8.10;72.80
68719;DHT22;55696;52.138;5.444;2022-11-14T04:02:50;8.00;73.20
68719;DHT22;55696;52.138;5.444;2022-11-14T04:05:36;8.10;72.90
68719;DHT22;55696;52.138;5.444;2022-11-14T04:08:21;8.10;73.30
68719;DHT22;55696;52.138;5.444;2022-11-14T04:11:07;8.10;72.90
68719;DHT22;55696;52.138;5.444;2022-11-14T04:13:53;7.90;73.10
68719;DHT22;55696;52.138;5.444;2022-11-14T04:16:38;8.00;72.80
68719;DHT22;55696;52.138;5.444;2022-11-14T04:19:23;8.00;72.80
68719;DHT22;55696;52.138;5.444;2022-11-14T04:22:09;8.00;72.90
68719;DHT22;55696;52.138;5.444;2022-11-14T04:24:54;8.00;73.20
68719;DHT22;55696;52.138;5.444;2022-11-14T04:27:39;8.00;73.20
68719;DHT22;55696;52.138;5.444;2022-11-14T04:30:25;7.90;73.10
68719;DHT22;55696;52.138;5.444;2022-11-14T04:33:15;7.90;73.30
68719;DHT22;55696;52.138;5.444;2022-11-14T04:36:01;7.90;73.30
68719;DHT22;55696;52.138;5.444;2022-11-14T04:38:46;7.90;73.30
68719;DHT22;55696;52.138;5.444;2022-11-14T04:41:32;7.90;73.30
68719;DHT22;55696;52.138;5.444;2022-11-14T04:44:17;7.90;73.10
68719;DHT22;55696;52.138;5.444;2022-11-14T04:47:02;7.90;73.20
68719;DHT22;55696;52.138;5.444;2022-11-14T04:49:48;8.00;73.50
68719;DHT22;55696;52.138;5.444;2022-11-14T04:52:33;7.90;73.20
68719;DHT22;55696;52.138;5.444;2022-11-14T04:55:19;8.00;73.70
68719;DHT22;55696;52.138;5.444;2022-11-14T04:58:04;7.90;73.30
68719;DHT22;55696;52.138;5.444;2022-11-14T05:00:49;7.90;73.50
68719;DHT22;55696;52.138;5.444;2022-11-14T05:03:35;7.80;73.50
68719;DHT22;55696;52.138;5.444;2022-11-14T05:06:20;7.80;73.60
68719;DHT22;55696;52.138;5.444;2022-11-14T05:09:06;8.00;73.30
68719;DHT22;55696;52.138;5.444;2022-11-14T05:11:52;8.00;73.30
68719;DHT22;55696;52.138;5.444;2022-11-14T05:14:37;8.00;73.40
68719;DHT22;55696;52.138;5.444;2022-11-14T05:17:22;8.10;73.30
68719;DHT22;55696;52.138;5.444;2022-11-14T05:20:08;8.00;73.00
68719;DHT22;55696;52.138;5.444;2022-11-14T05:22:55;8.10;73.20
68719;DHT22;55696;52.138;5.444;2022-11-14T05:25:40;7.90;73.50
68719;DHT22;55696;52.138;5.444;2022-11-14T05:28:25;7.90;72.70
68719;DHT22;55696;52.138;5.444;2022-11-14T05:31:13;7.90;72.60
68719;DHT22;55696;52.138;5.444;2022-11-14T05:34:01;8.00;74.40
68719;DHT22;55696;52.138;5.444;2022-11-14T05:36:47;8.00;72.80
68719;DHT22;55696;52.138;5.444;2022-11-14T05:39:32;7.90;72.80
68719;DHT22;55696;52.138;5.444;2022-11-14T05:42:18;7.90;73.10
68719;DHT22;55696;52.138;5.444;2022-11-14T05:45:03;7.90;73.00
68719;DHT22;55696;52.138;5.444;2022-11-14T05:47:51;7.90;73.20
68719;DHT22;55696;52.138;5.444;2022-11-14T05:50:37;7.80;74.40
68719;DHT22;55696;52.138;5.444;2022-11-14T05:53:22;7.80;73.20
68719;DHT22;55696;52.138;5.444;2022-11-14T05:56:11;7.80;73.40
68719;DHT22;55696;52.138;5.444;2022-11-14T05:58:57;8.90;75.70
68719;DHT22;55696;52.138;5.444;2022-11-14T06:01:42;7.80;73.10
68719;DHT22;55696;52.138;5.444;2022-11-14T06:04:27;7.80;73.40
68719;DHT22;55696;52.138;5.444;2022-11-14T06:07:13;7.80;73.20
68719;DHT22;55696;52.138;5.444;2022-11-14T06:10:04;7.80;73.10
68719;DHT22;55696;52.138;5.444;2022-11-14T06:12:50;7.90;73.50
68719;DHT22;55696;52.138;5.444;2022-11-14T06:15:35;7.80;73.50
68719;DHT22;55696;52.138;5.444;2022-11-14T06:18:20;7.80;73.10
68719;DHT22;55696;52.138;5.444;2022-11-14T06:21:10;7.70;73.00
68719;DHT22;55696;52.138;5.444;2022-11-14T06:23:55;7.70;75.20
68719;DHT22;55696;52.138;5.444;2022-11-14T06:26:41;7.70;73.30
68719;DHT22;55696;52.138;5.444;2022-11-14T06:29:26;7.80;73.40
68719;DHT22;55696;52.138;5.444;2022-11-14T06:32:18;7.80;73.10
68719;DHT22;55696;52.138;5.444;2022-11-14T06:35:03;7.80;72.80
68719;DHT22;55696;52.138;5.444;2022-11-14T06:37:48;7.80;73.30
68719;DHT22;55696;52.138;5.444;2022-11-14T06:40:34;7.70;73.00
68719;DHT22;55696;52.138;5.444;2022-11-14T06:43:19;7.60;73.20
68719;DHT22;55696;52.138;5.444;2022-11-14T06:46:06;7.60;73.20
68719;DHT22;55696;52.138;5.444;2022-11-14T06:48:51;7.70;74.60
68719;DHT22;55696;52.138;5.444;2022-11-14T06:51:36;7.60;74.30
68719;DHT22;55696;52.138;5.444;2022-11-14T06:54:22;7.60;73.40
68719;DHT22;55696;52.138;5.444;2022-11-14T06:57:07;7.60;73.20
68719;DHT22;55696;52.138;5.444;2022-11-14T06:59:52;7.60;73.40
68719;DHT22;55696;52.138;5.444;2022-11-14T07:02:38;7.50;73.10
68719;DHT22;55696;52.138;5.444;2022-11-14T07:05:23;7.60;73.20
68719;DHT22;55696;52.138;5.444;2022-11-14T07:08:08;7.60;73.30
68719;DHT22;55696;52.138;5.444;2022-11-14T07:11:03;7.60;73.30
68719;DHT22;55696;52.138;5.444;2022-11-14T07:13:54;7.60;74.80
68719;DHT22;55696;52.138;5.444;2022-11-14T07:16:39;7.60;73.90
68719;DHT22;55696;52.138;5.444;2022-11-14T07:19:24;7.50;73.20
68719;DHT22;55696;52.138;5.444;2022-11-14T07:22:10;7.60;73.20
68719;DHT22;55696;52.138;5.444;2022-11-14T07:24:55;7.70;73.20
68719;DHT22;55696;52.138;5.444;2022-11-14T07:27:41;7.60;73.20
68719;DHT22;55696;52.138;5.444;2022-11-14T07:30:26;7.70;73.30
68719;DHT22;55696;52.138;5.444;2022-11-14T07:33:12;7.80;73.10
68719;DHT22;55696;52.138;5.444;2022-11-14T07:35:57;7.80;73.00
68719;DHT22;55696;52.138;5.444;2022-11-14T07:38:42;7.80;72.90
68719;DHT22;55696;52.138;5.444;2022-11-14T07:41:28;7.90;72.90
68719;DHT22;55696;52.138;5.444;2022-11-14T07:44:13;7.90;72.80
68719;DHT22;55696;52.138;5.444;2022-11-14T07:46:59;8.00;72.70
68719;DHT22;55696;52.138;5.444;2022-11-14T07:49:44;8.00;72.50
68719;DHT22;55696;52.138;5.444;2022-11-14T07:52:29;8.00;72.50
68719;DHT22;55696;52.138;5.444;2022-11-14T07:55:18;8.10;72.10
68719;DHT22;55696;52.138;5.444;2022-11-14T07:58:03;8.10;72.70
68719;DHT22;55696;52.138;5.444;2022-11-14T08:00:48;8.20;72.70
68719;DHT22;55696;52.138;5.444;2022-11-14T08:03:34;8.30;72.50
68719;DHT22;55696;52.138;5.444;2022-11-14T08:06:19;8.30;72.40
68719;DHT22;55696;52.138;5.444;2022-11-14T08:09:04;8.30;72.10
68719;DHT22;55696;52.138;5.444;2022-11-14T08:11:50;8.30;71.90
68719;DHT22;55696;52.138;5.444;2022-11-14T08:14:35;8.30;71.90
68719;DHT22;55696;52.138;5.444;2022-11-14T08:17:22;8.40;71.80
68719;DHT22;55696;52.138;5.444;2022-11-14T08:20:08;8.40;72.50
68719;DHT22;55696;52.138;5.444;2022-11-14T08:23:00;8.50;72.20
68719;DHT22;55696;52.138;5.444;2022-11-14T08:25:46;8.50;71.60
68719;DHT22;55696;52.138;5.444;2022-11-14T08:28:31;8.60;71.20
68719;DHT22;55696;52.138;5.444;2022-11-14T08:31:17;8.60;71.00
68719;DHT22;55696;52.138;5.444;2022-11-14T08:34:02;8.60;71.10
68719;DHT22;55696;52.138;5.444;2022-11-14T08:36:48;8.70;71.10
68719;DHT22;55696;52.138;5.444;2022-11-14T08:39:33;8.70;71.80
68719;DHT22;55696;52.138;5.444;2022-11-14T08:42:19;8.70;72.00
68719;DHT22;55696;52.138;5.444;2022-11-14T08:45:04;8.80;71.20
68719;DHT22;55696;52.138;5.444;2022-11-14T08:47:51;8.90;71.60
68719;DHT22;55696;52.138;5.444;2022-11-14T08:50:36;8.90;71.60
68719;DHT22;55696;52.138;5.444;2022-11-14T08:53:22;8.90;70.90
68719;DHT22;55696;52.138;5.444;2022-11-14T08:56:09;9.00;71.30
68719;DHT22;55696;52.138;5.444;2022-11-14T08:58:54;9.10;72.10
68719;DHT22;55696;52.138;5.444;2022-11-14T09:01:40;9.20;70.80
68719;DHT22;55696;52.138;5.444;2022-11-14T09:04:25;9.30;70.50
68719;DHT22;55696;52.138;5.444;2022-11-14T09:07:11;9.30;70.30
68719;DHT22;55696;52.138;5.444;2022-11-14T09:09:56;9.50;70.10
68719;DHT22;55696;52.138;5.444;2022-11-14T09:12:41;9.50;69.90
68719;DHT22;55696;52.138;5.444;2022-11-14T09:15:28;9.70;69.80
68719;DHT22;55696;52.138;5.444;2022-11-14T09:18:13;9.80;70.40
68719;DHT22;55696;52.138;5.444;2022-11-14T09:21:03;9.90;70.50
68719;DHT22;55696;52.138;5.444;2022-11-14T09:23:49;9.90;70.30
68719;DHT22;55696;52.138;5.444;2022-11-14T09:26:35;10.10;69.30
68719;DHT22;55696;52.138;5.444;2022-11-14T09:29:20;10.10;69.30
68719;DHT22;55696;52.138;5.444;2022-11-14T09:32:05;10.20;69.20
68719;DHT22;55696;52.138;5.444;2022-11-14T09:34:50;10.30;69.10
68719;DHT22;55696;52.138;5.444;2022-11-14T09:37:36;10.40;68.80
68719;DHT22;55696;52.138;5.444;2022-11-14T09:40:21;10.50;68.70
68719;DHT22;55696;52.138;5.444;2022-11-14T09:43:39;10.60;68.30
68719;DHT22;55696;52.138;5.444;2022-11-14T09:46:32;10.80;70.00
68719;DHT22;55696;52.138;5.444;2022-11-14T09:49:40;10.60;69.80
68719;DHT22;55696;52.138;5.444;2022-11-14T09:55:39;11.00;69.60
68719;DHT22;55696;52.138;5.444;2022-11-14T09:58:25;11.10;67.80
68719;DHT22;55696;52.138;5.444;2022-11-14T10:11:09;11.50;68.70
68719;DHT22;55696;52.138;5.444;2022-11-14T10:14:16;11.60;69.00
68719;DHT22;55696;52.138;5.444;2022-11-14T10:24:02;11.70;67.90
68719;DHT22;55696;52.138;5.444;2022-11-14T10:27:03;11.90;67.60
68719;DHT22;55696;52.138;5.444;2022-11-14T10:30:07;11.90;67.90
68719;DHT22;55696;52.138;5.444;2022-11-14T10:36:44;12.10;64.60
68719;DHT22;55696;52.138;5.444;2022-11-14T10:39:17;12.20;67.20
68719;DHT22;55696;52.138;5.444;2022-11-14T10:42:11;12.30;66.00
68719;DHT22;55696;52.138;5.444;2022-11-14T10:45:06;12.30;66.80
68719;DHT22;55696;52.138;5.444;2022-11-14T10:47:57;12.40;66.50
68719;DHT22;55696;52.138;5.444;2022-11-14T10:51:01;12.90;66.30
68719;DHT22;55696;52.138;5.444;2022-11-14T10:54:06;12.50;65.70
68719;DHT22;55696;52.138;5.444;2022-11-14T10:56:56;12.40;65.80
68719;DHT22;55696;52.138;5.444;2022-11-14T10:59:41;12.50;64.10
68719;DHT22;55696;52.138;5.444;2022-11-14T11:02:46;12.50;63.90
68719;DHT22;55696;52.138;5.444;2022-11-14T11:05:45;12.50;66.00
68719;DHT22;55696;52.138;5.444;2022-11-14T11:08:30;12.60;65.90
68719;DHT22;55696;52.138;5.444;2022-11-14T11:11:38;12.60;63.20
68719;DHT22;55696;52.138;5.444;2022-11-14T11:14:25;12.70;65.10
68719;DHT22;55696;52.138;5.444;2022-11-14T11:19:56;12.90;63.20
68719;DHT22;55696;52.138;5.444;2022-11-14T11:26:02;12.90;64.20
68719;DHT22;55696;52.138;5.444;2022-11-14T11:31:56;13.00;64.90
68719;DHT22;55696;52.138;5.444;2022-11-14T11:34:42;13.00;64.10
68719;DHT22;55696;52.138;5.444;2022-11-14T11:37:36;12.80;63.00
68719;DHT22;55696;52.138;5.444;2022-11-14T11:40:26;13.20;64.30
68719;DHT22;55696;52.138;5.444;2022-11-14T11:46:51;13.20;65.30
68719;DHT22;55696;52.138;5.444;2022-11-14T11:49:48;13.20;64.20
68719;DHT22;55696;52.138;5.444;2022-11-14T11:52:44;13.30;64.20
68719;DHT22;55696;52.138;5.444;2022-11-14T11:55:35;13.20;64.30
68719;DHT22;55696;52.138;5.444;2022-11-14T11:58:36;13.30;63.40
68719;DHT22;55696;52.138;5.444;2022-11-14T12:01:24;13.30;64.90
68719;DHT22;55696;52.138;5.444;2022-11-14T12:04:09;13.30;62.40
68719;DHT22;55696;52.138;5.444;2022-11-14T12:07:08;13.40;62.40
68719;DHT22;55696;52.138;5.444;2022-11-14T12:09:56;13.40;63.70
68719;DHT22;55696;52.138;5.444;2022-11-14T12:13:32;13.30;63.10
68719;DHT22;55696;52.138;5.444;2022-11-14T12:16:38;13.40;64.40
68719;DHT22;55696;52.138;5.444;2022-11-14T12:32:31;13.20;65.10
68719;DHT22;55696;52.138;5.444;2022-11-14T12:35:26;13.00;64.80
68719;DHT22;55696;52.138;5.444;2022-11-14T12:38:15;13.00;65.00
68719;DHT22;55696;52.138;5.444;2022-11-14T12:41:03;13.00;64.50
68719;DHT22;55696;52.138;5.444;2022-11-14T12:43:48;13.20;63.30
68719;DHT22;55696;52.138;5.444;2022-11-14T12:52:52;13.00;65.40
68719;DHT22;55696;52.138;5.444;2022-11-14T12:58:43;12.80;65.70
68719;DHT22;55696;52.138;5.444;2022-11-14T13:07:36;12.60;66.30
68719;DHT22;55696;52.138;5.444;2022-11-14T13:10:39;12.50;65.90
68719;DHT22;55696;52.138;5.444;2022-11-14T13:13:25;12.30;67.20
68719;DHT22;55696;52.138;5.444;2022-11-14T13:16:42;12.20;64.70
68719;DHT22;55696;52.138;5.444;2022-11-14T13:20:38;12.10;65.00
68719;DHT22;55696;52.138;5.444;2022-11-14T13:29:45;11.90;67.90
68719;DHT22;55696;52.138;5.444;2022-11-14T13:35:37;11.90;68.40
68719;DHT22;55696;52.138;5.444;2022-11-14T13:38:50;11.90;67.60
68719;DHT22;55696;52.138;5.444;2022-11-14T13:48:06;12.00;68.30
68719;DHT22;55696;52.138;5.444;2022-11-14T13:51:00;12.00;67.80
68719;DHT22;55696;52.138;5.444;2022-11-14T13:54:13;12.00;67.70
68719;DHT22;55696;52.138;5.444;2022-11-14T13:57:14;11.90;67.70
68719;DHT22;55696;52.138;5.444;2022-11-14T14:03:18;11.90;68.10
68719;DHT22;55696;52.138;5.444;2022-11-14T14:09:36;12.00;68.40
68719;DHT22;55696;52.138;5.444;2022-11-14T14:12:45;12.00;68.00
68719;DHT22;55696;52.138;5.444;2022-11-14T14:21:51;11.90;65.80
68719;DHT22;55696;52.138;5.444;2022-11-14T14:24:51;11.90;67.70
68719;DHT22;55696;52.138;5.444;2022-11-14T14:33:54;11.90;68.50
68719;DHT22;55696;52.138;5.444;2022-11-14T14:36:48;11.90;66.40
68719;DHT22;55696;52.138;5.444;2022-11-14T14:39:34;11.90;68.40
68719;DHT22;55696;52.138;5.444;2022-11-14T14:42:20;11.80;66.60
68719;DHT22;55696;52.138;5.444;2022-11-14T14:45:20;11.90;67.80
68719;DHT22;55696;52.138;5.444;2022-11-14T14:48:13;11.90;69.00
68719;DHT22;55696;52.138;5.444;2022-11-14T14:50:59;11.90;68.60
68719;DHT22;55696;52.138;5.444;2022-11-14T14:53:51;11.80;67.70
68719;DHT22;55696;52.138;5.444;2022-11-14T14:56:37;11.80;68.80
68719;DHT22;55696;52.138;5.444;2022-11-14T14:59:25;11.90;67.00
68719;DHT22;55696;52.138;5.444;2022-11-14T15:02:16;11.90;68.10
68719;DHT22;55696;52.138;5.444;2022-11-14T15:05:04;11.90;68.80
68719;DHT22;55696;52.138;5.444;2022-11-14T15:07:52;11.90;68.10
68719;DHT22;55696;52.138;5.444;2022-11-14T15:10:38;12.00;68.00
68719;DHT22;55696;52.138;5.444;2022-11-14T15:13:26;11.90;67.80
68719;DHT22;55696;52.138;5.444;2022-11-14T15:16:12;11.90;67.90
68719;DHT22;55696;52.138;5.444;2022-11-14T15:18:58;11.90;66.90
68719;DHT22;55696;52.138;5.444;2022-11-14T15:21:44;11.90;67.90
68719;DHT22;55696;52.138;5.444;2022-11-14T15:24:30;11.80;67.20
68719;DHT22;55696;52.138;5.444;2022-11-14T15:27:18;12.70;67.80
68719;DHT22;55696;52.138;5.444;2022-11-14T15:30:06;11.90;69.30
68719;DHT22;55696;52.138;5.444;2022-11-14T15:33:05;11.90;68.60
68719;DHT22;55696;52.138;5.444;2022-11-14T15:36:14;11.80;68.60
68719;DHT22;55696;52.138;5.444;2022-11-14T15:39:18;11.80;69.30
68719;DHT22;55696;52.138;5.444;2022-11-14T15:42:13;11.80;68.70
68719;DHT22;55696;52.138;5.444;2022-11-14T15:44:59;11.70;69.40
68719;DHT22;55696;52.138;5.444;2022-11-14T15:47:45;11.70;67.50
68719;DHT22;55696;52.138;5.444;2022-11-14T15:50:32;11.60;67.60
68719;DHT22;55696;52.138;5.444;2022-11-14T15:53:23;11.60;68.60
68719;DHT22;55696;52.138;5.444;2022-11-14T15:56:10;11.60;69.90
68719;DHT22;55696;52.138;5.444;2022-11-14T15:58:57;11.70;68.90
68719;DHT22;55696;52.138;5.444;2022-11-14T16:01:43;11.60;67.50
68719;DHT22;55696;52.138;5.444;2022-11-14T16:04:32;11.70;68.60
68719;DHT22;55696;52.138;5.444;2022-11-14T16:07:18;11.60;69.00
68719;DHT22;55696;52.138;5.444;2022-11-14T16:10:16;11.60;68.50
68719;DHT22;55696;52.138;5.444;2022-11-14T16:13:01;11.60;70.20
68719;DHT22;55696;52.138;5.444;2022-11-14T16:15:47;11.60;68.00
68719;DHT22;55696;52.138;5.444;2022-11-14T16:18:32;11.60;68.10
68719;DHT22;55696;52.138;5.444;2022-11-14T16:21:18;11.50;67.90
68719;DHT22;55696;52.138;5.444;2022-11-14T16:24:04;11.30;68.00
68719;DHT22;55696;52.138;5.444;2022-11-14T16:26:50;11.40;68.70
68719;DHT22;55696;52.138;5.444;2022-11-14T16:29:35;11.30;69.10
68719;DHT22;55696;52.138;5.444;2022-11-14T16:32:20;11.20;68.20
68719;DHT22;55696;52.138;5.444;2022-11-14T16:35:19;11.10;68.50
68719;DHT22;55696;52.138;5.444;2022-11-14T16:38:04;11.10;70.70
68719;DHT22;55696;52.138;5.444;2022-11-14T16:40:52;11.10;68.70
68719;DHT22;55696;52.138;5.444;2022-11-14T16:43:38;11.00;68.80
68719;DHT22;55696;52.138;5.444;2022-11-14T16:46:24;11.00;68.80
68719;DHT22;55696;52.138;5.444;2022-11-14T16:49:14;10.90;69.20
68719;DHT22;55696;52.138;5.444;2022-11-14T16:51:59;10.90;71.20
68719;DHT22;55696;52.138;5.444;2022-11-14T16:54:49;10.70;69.50
68719;DHT22;55696;52.138;5.444;2022-11-14T16:57:35;10.70;69.70
68719;DHT22;55696;52.138;5.444;2022-11-14T17:00:23;10.80;69.60
68719;DHT22;55696;52.138;5.444;2022-11-14T17:03:08;10.70;70.60
68719;DHT22;55696;52.138;5.444;2022-11-14T17:05:54;10.60;70.20
68719;DHT22;55696;52.138;5.444;2022-11-14T17:08:39;10.60;70.00
68719;DHT22;55696;52.138;5.444;2022-11-14T17:11:25;10.60;69.70
68719;DHT22;55696;52.138;5.444;2022-11-14T17:14:10;10.50;70.20
68719;DHT22;55696;52.138;5.444;2022-11-14T17:16:56;10.50;70.50
68719;DHT22;55696;52.138;5.444;2022-11-14T17:19:49;10.50;70.80
68719;DHT22;55696;52.138;5.444;2022-11-14T17:22:35;10.50;70.70
68719;DHT22;55696;52.138;5.444;2022-11-14T17:25:20;10.40;70.60
68719;DHT22;55696;52.138;5.444;2022-11-14T17:28:05;10.30;70.70
68719;DHT22;55696;52.138;5.444;2022-11-14T17:30:51;10.30;70.80
68719;DHT22;55696;52.138;5.444;2022-11-14T17:33:37;10.30;70.70
68719;DHT22;55696;52.138;5.444;2022-11-14T17:36:24;10.20;71.00
68719;DHT22;55696;52.138;5.444;2022-11-14T17:39:10;10.20;71.80
68719;DHT22;55696;52.138;5.444;2022-11-14T17:41:55;10.10;70.80
68719;DHT22;55696;52.138;5.444;2022-11-14T17:44:40;10.10;70.90
68719;DHT22;55696;52.138;5.444;2022-11-14T17:47:26;10.10;71.10
68719;DHT22;55696;52.138;5.444;2022-11-14T17:50:11;10.00;71.80
68719;DHT22;55696;52.138;5.444;2022-11-14T17:52:57;10.10;71.40
68719;DHT22;55696;52.138;5.444;2022-11-14T17:55:42;10.10;71.30
68719;DHT22;55696;52.138;5.444;2022-11-14T17:58:29;10.10;71.50
68719;DHT22;55696;52.138;5.444;2022-11-14T18:01:21;10.10;72.00
68719;DHT22;55696;52.138;5.444;2022-11-14T18:04:06;10.00;72.40
68719;DHT22;55696;52.138;5.444;2022-11-14T18:06:52;10.00;71.40
68719;DHT22;55696;52.138;5.444;2022-11-14T18:09:37;10.10;71.80
68719;DHT22;55696;52.138;5.444;2022-11-14T18:12:23;10.00;71.60
68719;DHT22;55696;52.138;5.444;2022-11-14T18:15:08;10.00;71.50
68719;DHT22;55696;52.138;5.444;2022-11-14T18:17:54;10.10;72.30
68719;DHT22;55696;52.138;5.444;2022-11-14T18:20:39;10.00;71.50
68719;DHT22;55696;52.138;5.444;2022-11-14T18:23:25;10.10;71.50
68719;DHT22;55696;52.138;5.444;2022-11-14T18:26:10;10.00;71.40
68719;DHT22;55696;52.138;5.444;2022-11-14T18:28:57;10.00;71.50
68719;DHT22;55696;52.138;5.444;2022-11-14T18:31:43;10.00;72.50
68719;DHT22;55696;52.138;5.444;2022-11-14T18:34:28;10.10;71.60
68719;DHT22;55696;52.138;5.444;2022-11-14T18:37:14;10.00;71.60
68719;DHT22;55696;52.138;5.444;2022-11-14T18:39:59;10.10;71.60
68719;DHT22;55696;52.138;5.444;2022-11-14T18:42:44;10.10;71.50
68719;DHT22;55696;52.138;5.444;2022-11-14T18:45:30;10.10;71.40
68719;DHT22;55696;52.138;5.444;2022-11-14T18:48:15;10.20;71.70
68719;DHT22;55696;52.138;5.444;2022-11-14T18:51:06;10.20;71.70
68719;DHT22;55696;52.138;5.444;2022-11-14T18:53:52;10.20;73.50
68719;DHT22;55696;52.138;5.444;2022-11-14T18:56:39;10.20;71.80
68719;DHT22;55696;52.138;5.444;2022-11-14T18:59:25;10.20;72.00
68719;DHT22;55696;52.138;5.444;2022-11-14T19:02:10;10.20;72.20
68719;DHT22;55696;52.138;5.444;2022-11-14T19:04:56;10.20;71.00
68719;DHT22;55696;52.138;5.444;2022-11-14T19:07:41;10.10;71.20
68719;DHT22;55696;52.138;5.444;2022-11-14T19:10:27;10.20;71.40
68719;DHT22;55696;52.138;5.444;2022-11-14T19:13:12;10.20;71.20
68719;DHT22;55696;52.138;5.444;2022-11-14T19:16:02;10.10;71.50
68719;DHT22;55696;52.138;5.444;2022-11-14T19:18:47;10.10;73.50
68719;DHT22;55696;52.138;5.444;2022-11-14T19:21:33;10.10;71.10
68719;DHT22;55696;52.138;5.444;2022-11-14T19:24:18;10.10;71.80
68719;DHT22;55696;52.138;5.444;2022-11-14T19:27:03;10.10;71.00
68719;DHT22;55696;52.138;5.444;2022-11-14T19:29:49;10.00;71.40
68719;DHT22;55696;52.138;5.444;2022-11-14T19:32:34;10.00;71.50